Time;durP1;ratioP1;P1;durP2;ratioP2;P2;SDS_P1;SDS_P2;PMS_P1;PMS_P2;Temp;Humidity;BMP_temperature;BMP_pressure;BME280_temperature;BME280_humidity;BME280_pressure;Samples;Min_cycle;Max_cycle;Signal;HPM_P1;HPM_P2
2021/04/27 00:02:16;;;;;;;20.83;9.13;;;;;;;30.86;59.02;101047.06;5042875;28;66232;-34
2021/04/27 00:04:46;;;;;;;17.33;8.38;;;;;;;30.94;58.36;101044.09;5043447;28;69515;-37
2021/04/27 00:07:15;;;;;;;24.80;9.38;;;;;;;30.97;58.29;101057.22;5045041;28;66370;-36
2021/04/27 00:09:44;;;;;;;24.67;10.20;;;;;;;30.98;59.57;101050.75;5049808;28;70220;-36
2021/04/27 00:12:14;;;;;;;30.08;9.63;;;;;;;31.03;59.71;101042.78;5038839;28;66320;-36
2021/04/27 00:14:43;;;;;;;15.77;10.18;;;;;;;31.05;60.09;101045.31;5047411;28;69395;-36
2021/04/27 00:17:13;;;;;;;19.70;10.10;;;;;;;31.07;60.63;101054.88;5040209;28;66104;-36
2021/04/27 00:19:43;;;;;;;13.68;10.07;;;;;;;31.10;60.88;101054.44;5044930;28;70814;-35
2021/04/27 00:22:12;;;;;;;16.13;9.05;;;;;;;31.10;61.16;101064.44;5037548;28;66276;-35
2021/04/27 00:24:41;;;;;;;46.28;10.88;;;;;;;31.10;62.40;101065.28;5042016;28;70285;-36
2021/04/27 00:27:11;;;;;;;15.00;10.05;;;;;;;31.16;61.58;101064.41;5038881;28;66408;-34
2021/04/27 00:29:41;;;;;;;16.70;10.30;;;;;;;31.16;62.22;101061.69;5039146;28;70299;-34
2021/04/27 00:32:11;;;;;;;13.25;10.40;;;;;;;31.31;61.25;101071.38;5048920;28;66563;-33
2021/04/27 00:34:41;;;;;;;17.75;11.13;;;;;;;31.41;61.64;101077.19;5042115;28;69394;-33
2021/04/27 00:37:11;;;;;;;18.40;10.07;;;;;;;31.42;61.37;101081.56;5042143;28;65956;-32
2021/04/27 00:39:41;;;;;;;11.32;10.18;;;;;;;31.45;61.34;101086.53;5047149;28;70674;-34
2021/04/27 00:42:11;;;;;;;15.93;11.05;;;;;;;31.51;61.10;101085.69;5046587;28;65843;-34
2021/04/27 00:44:41;;;;;;;20.17;12.45;;;;;;;31.60;60.61;101092.50;5046046;28;69522;-32
2021/04/27 00:47:10;;;;;;;29.30;13.98;;;;;;;31.67;59.99;101086.19;5040735;28;66407;-32
2021/04/27 00:49:39;;;;;;;17.60;12.38;;;;;;;31.71;61.00;101096.38;5045695;28;69415;-32
2021/04/27 00:52:09;;;;;;;23.60;13.15;;;;;;;31.74;60.91;101097.81;5045797;28;67122;-34
2021/04/27 00:54:38;;;;;;;14.10;12.02;;;;;;;31.72;60.77;101106.16;5046315;28;70982;-31
2021/04/27 00:57:07;;;;;;;18.60;11.68;;;;;;;31.75;60.44;101110.31;5036210;28;67675;-32
2021/04/27 00:59:37;;;;;;;16.38;12.27;;;;;;;31.75;60.24;101104.88;5018764;28;69496;-33
2021/04/27 01:02:06;;;;;;;16.83;12.65;;;;;;;31.83;60.48;101116.28;5039606;28;66231;-31
2021/04/27 01:04:36;;;;;;;16.80;12.88;;;;;;;31.81;60.71;101123.00;5041353;28;69529;-32
2021/04/27 01:07:05;;;;;;;13.70;12.00;;;;;;;31.80;60.63;101121.34;5037548;28;66147;-32
2021/04/27 01:09:51;;;;;;;17.45;11.77;;;;;;;31.63;61.30;101102.06;5046133;28;69839;-33
2021/04/27 01:12:34;;;;;;;14.38;12.05;;;;;;;31.75;60.99;101122.00;5029715;28;66336;-32
2021/04/27 01:15:08;;;;;;;14.05;12.63;;;;;;;31.80;61.13;101118.63;5036479;28;70066;-33
2021/04/27 01:17:39;;;;;;;21.65;11.65;;;;;;;31.86;60.73;101117.72;5029969;28;66827;-32
2021/04/27 01:20:49;;;;;;;14.30;12.00;;;;;;;31.80;60.96;101118.63;5046641;28;69825;-32
2021/04/27 01:23:48;;;;;;;16.63;11.73;;;;;;;31.86;60.49;101134.00;5032751;28;66257;-32
2021/04/27 01:26:20;;;;;;;17.67;11.23;;;;;;;31.87;60.07;101130.22;5002557;28;70674;-32
2021/04/27 01:28:53;;;;;;;14.93;11.98;;;;;;;31.91;60.07;101136.06;5043059;28;66869;-33
2021/04/27 01:31:33;;;;;;;25.23;12.10;;;;;;;31.90;60.41;101140.69;5036833;28;70294;-32
2021/04/27 01:34:06;;;;;;;13.43;10.38;;;;;;;31.77;59.87;101108.22;5042819;28;67300;-33
2021/04/27 01:36:36;;;;;;;;;;;;;;;31.85;60.06;101132.34;5040471;28;69838;-33
2021/04/27 01:39:07;;;;;;;11.70;10.55;;;;;;;31.95;59.60;101134.59;5040012;28;66778;-32
2021/04/27 01:41:38;;;;;;;15.98;10.23;;;;;;;31.99;59.19;101139.38;5043750;28;69682;-33
2021/04/27 01:44:08;;;;;;;12.45;11.02;;;;;;;32.01;59.42;101136.41;5038739;28;65293;-33
2021/04/27 01:46:38;;;;;;;11.80;10.50;;;;;;;32.01;59.21;101134.56;5038699;28;70567;-33
2021/04/27 01:49:08;;;;;;;10.20;9.35;;;;;;;32.01;59.02;101136.41;5039127;28;65609;-33
2021/04/27 01:51:52;;;;;;;11.65;10.52;;;;;;;32.01;58.77;101131.84;5048142;28;70094;-32
2021/04/27 01:54:41;;;;;;;13.73;10.35;;;;;;;32.04;58.96;101128.69;5051679;28;65300;-33
2021/04/27 01:57:11;;;;;;;11.35;10.13;;;;;;;32.05;58.57;101126.78;5043584;28;70578;-33
2021/04/27 01:59:42;;;;;;;15.87;9.83;;;;;;;32.04;58.78;101120.53;5030591;28;66258;-34
2021/04/27 02:02:17;;;;;;;14.07;11.30;;;;;;;32.09;58.87;101116.31;5046740;28;70335;-33
2021/04/27 02:04:59;;;;;;;13.30;10.13;;;;;;;32.09;58.40;101119.03;5045163;28;66357;-34
2021/04/27 02:07:48;;;;;;;12.05;10.32;;;;;;;32.12;58.39;101124.00;5051229;28;69619;-33
2021/04/27 02:10:18;;;;;;;14.25;9.75;;;;;;;32.12;58.39;101115.88;5047623;28;65162;-33
2021/04/27 02:12:52;;;;;;;13.80;10.25;;;;;;;31.96;57.93;101090.97;5048011;28;70624;-31
2021/04/27 02:15:25;;;;;;;11.68;10.40;;;;;;;32.19;58.00;101132.94;5045685;28;65959;-31
2021/04/27 02:18:12;;;;;;;10.48;9.65;;;;;;;32.19;58.17;101132.94;5047374;28;70319;-31
2021/04/27 02:20:43;;;;;;;11.77;10.43;;;;;;;32.21;58.09;101130.81;5042866;28;67200;-32
2021/04/27 02:23:33;;;;;;;10.27;9.57;;;;;;;32.12;57.99;101115.88;5047479;28;70845;-32
2021/04/27 02:26:10;;;;;;;10.50;9.80;;;;;;;32.24;58.15;101131.19;5036294;28;66270;-32
2021/04/27 02:28:45;;;;;;;12.15;10.23;;;;;;;32.25;58.12;101137.47;5040096;28;70254;-32
2021/04/27 02:31:15;;;;;;;9.85;9.00;;;;;;;32.30;58.05;101137.63;5051755;28;66402;-32
2021/04/27 02:33:45;;;;;;;9.48;8.82;;;;;;;32.30;57.69;101124.03;5044629;28;69537;-32
2021/04/27 02:36:15;;;;;;;9.85;9.02;;;;;;;32.35;57.70;101132.34;5037859;28;66279;-33
2021/04/27 02:38:58;;;;;;;10.05;8.77;;;;;;;32.36;57.60;101128.56;5035128;28;69697;-31
2021/04/27 02:41:32;;;;;;;9.93;8.45;;;;;;;32.38;57.70;101126.47;5042658;28;65800;-32
2021/04/27 02:44:11;;;;;;;8.63;7.80;;;;;;;32.40;57.37;101118.94;5047636;28;70270;-32
2021/04/27 02:46:46;;;;;;;9.07;8.40;;;;;;;32.42;57.65;101124.94;5054710;28;66162;-32
2021/04/27 02:49:16;;;;;;;10.27;9.30;;;;;;;32.45;57.40;101110.09;5044968;28;69993;-32
2021/04/27 02:51:55;;;;;;;10.05;9.00;;;;;;;32.45;57.29;101097.34;5042121;28;65858;-32
2021/04/27 02:54:25;;;;;;;9.35;8.48;;;;;;;32.52;57.46;101107.38;5045752;28;70971;-32
2021/04/27 02:56:55;;;;;;;8.68;7.95;;;;;;;32.53;57.19;101098.16;5046941;28;65924;-32
2021/04/27 02:59:40;;;;;;;9.02;8.30;;;;;;;32.54;57.33;101097.94;5044730;28;70305;-32
2021/04/27 03:02:10;;;;;;;9.15;8.35;;;;;;;32.56;57.43;101095.81;5039988;28;65761;-32
2021/04/27 03:04:40;;;;;;;9.02;8.18;;;;;;;32.57;57.27;101092.03;5037600;28;70658;-32
2021/04/27 03:07:17;;;;;;;10.63;7.90;;;;;;;32.61;57.23;101100.56;5046481;28;66375;-32
2021/04/27 03:09:50;;;;;;;9.40;8.57;;;;;;;32.63;57.01;101084.88;5045519;28;71153;-32
2021/04/27 03:12:20;;;;;;;8.77;7.97;;;;;;;32.66;56.82;101087.13;5047655;28;65843;-32
2021/04/27 03:14:49;;;;;;;10.82;7.95;;;;;;;32.69;56.65;101100.25;5036260;28;70275;-32
2021/04/27 03:17:23;;;;;;;9.45;8.65;;;;;;;32.71;56.74;101104.41;5047617;28;66196;-32
2021/04/27 03:19:58;;;;;;;8.80;8.15;;;;;;;32.73;56.52;101104.16;5041991;28;68669;-32
2021/04/27 03:22:34;;;;;;;9.10;8.10;;;;;;;32.76;56.69;101106.41;5041630;28;67153;-32
2021/04/27 03:25:05;;;;;;;9.18;7.80;;;;;;;32.68;56.48;101087.72;5042825;28;70448;-32
2021/04/27 03:27:36;;;;;;;7.88;7.30;;;;;;;32.74;56.47;101094.97;5039149;28;66328;-32
2021/04/27 03:30:22;;;;;;;8.55;7.75;;;;;;;32.81;56.23;101098.41;5033780;28;70722;-32
2021/04/27 03:32:58;;;;;;;8.32;7.65;;;;;;;32.85;56.21;101105.06;5046140;28;67000;-32
2021/04/27 03:35:28;;;;;;;8.75;8.10;;;;;;;32.84;56.39;101097.97;5037004;28;70336;-32
2021/04/27 03:37:59;;;;;;;8.17;7.57;;;;;;;32.88;56.13;101093.75;5041889;28;66441;-32
2021/04/27 03:40:29;;;;;;;8.63;7.93;;;;;;;32.90;56.06;101086.19;5045657;28;70781;-32
2021/04/27 03:42:58;;;;;;;8.38;7.78;;;;;;;32.93;55.91;101091.19;5039447;28;65519;-32
2021/04/27 03:45:36;;;;;;;8.63;8.02;;;;;;;32.90;56.05;101080.75;5038120;28;69305;-32
2021/04/27 03:48:11;;;;;;;8.50;7.90;;;;;;;32.86;55.93;101074.13;5040088;28;66367;-32
2021/04/27 03:50:49;;;;;;;10.52;8.35;;;;;;;32.98;55.97;101087.75;5032672;28;70549;-32
2021/04/27 03:53:36;;;;;;;8.30;7.60;;;;;;;32.99;56.08;101086.72;5039072;28;66701;-32
2021/04/27 03:56:10;;;;;;;10.23;7.80;;;;;;;32.98;55.95;101082.31;5039905;28;69310;-32
2021/04/27 03:58:40;;;;;;;8.13;7.63;;;;;;;32.99;55.58;101088.56;5040024;28;66748;-32
2021/04/27 04:01:16;;;;;;;9.18;8.25;;;;;;;33.03;55.77;101095.25;5042083;28;70533;-31
2021/04/27 04:03:45;;;;;;;11.65;8.68;;;;;;;33.04;55.86;101080.59;5037618;28;66056;-33
2021/04/27 04:06:16;;;;;;;10.35;9.52;;;;;;;33.04;56.11;101070.56;5046244;28;70748;-32
2021/04/27 04:09:06;;;;;;;10.80;9.75;;;;;;;33.02;56.18;101071.88;5042514;28;65626;-33
2021/04/27 04:11:55;;;;;;;10.98;9.13;;;;;;;32.99;56.21;101055.97;5050510;28;69099;-33
2021/04/27 04:14:25;;;;;;;9.52;8.70;;;;;;;33.00;56.63;101052.22;5039392;28;66773;-31
2021/04/27 04:17:17;;;;;;;9.98;9.18;;;;;;;32.90;56.34;101029.13;5036185;28;69592;-33
2021/04/27 04:19:47;;;;;;;10.02;9.20;;;;;;;33.03;56.15;101051.78;5041723;28;66103;-32
2021/04/27 04:22:17;;;;;;;10.25;9.45;;;;;;;32.99;56.50;101050.53;5032333;28;70388;-32
2021/04/27 04:25:00;;;;;;;10.40;9.60;;;;;;;33.01;56.30;101049.28;5036491;28;66090;-32
2021/04/27 04:27:29;;;;;;;10.82;9.07;;;;;;;33.00;56.16;101042.19;5038748;28;70225;-32
2021/04/27 04:30:09;;;;;;;9.98;9.30;;;;;;;33.02;55.97;101044.69;5034813;28;65844;-33
2021/04/27 04:32:40;;;;;;;9.60;8.93;;;;;;;33.02;56.13;101033.81;5040183;28;70268;-32
2021/04/27 04:35:28;;;;;;;9.88;9.07;;;;;;;32.87;56.16;101005.13;5044062;28;66717;-33
2021/04/27 04:38:23;;;;;;;10.93;8.82;;;;;;;32.87;56.39;100996.16;5027399;28;69662;-33
2021/04/27 04:41:11;;;;;;;10.30;9.43;;;;;;;32.93;56.69;101004.22;5039080;28;66877;-33
2021/04/27 04:43:58;;;;;;;9.73;8.98;;;;;;;32.94;56.66;101000.44;5037418;28;69665;-32
2021/04/27 04:46:46;;;;;;;10.82;9.77;;;;;;;32.93;56.49;100993.34;5047235;28;66139;-33
2021/04/27 04:49:27;;;;;;;10.38;9.45;;;;;;;32.96;56.58;100988.50;5043204;28;69744;-33
2021/04/27 04:52:15;;;;;;;9.45;8.75;;;;;;;32.93;56.36;100987.06;5049874;28;64329;-32
2021/04/27 04:55:08;;;;;;;;;;;;;;;32.88;56.38;100985.06;5035894;28;70172;-32
2021/04/27 04:58:09;;;;;;;9.73;9.02;;;;;;;32.95;56.43;100974.09;5034190;28;65849;-32
2021/04/27 05:00:57;;;;;;;10.98;10.02;;;;;;;32.93;56.57;100966.19;5053349;28;70575;-32
2021/04/27 05:03:41;;;;;;;10.98;10.13;;;;;;;32.91;56.19;100957.44;5058957;28;65753;-32
2021/04/27 05:06:45;;;;;;;11.10;10.23;;;;;;;32.90;56.65;100944.06;5073302;28;69685;-33
2021/04/27 05:09:47;;;;;;;10.05;9.25;;;;;;;32.85;56.78;100936.63;5010562;28;64468;-33
2021/04/27 05:12:25;;;;;;;10.88;10.05;;;;;;;32.94;56.82;100937.94;5052276;28;70540;-33
2021/04/27 05:14:54;;;;;;;11.13;10.07;;;;;;;32.94;56.69;100934.41;5055030;28;66173;-32
2021/04/27 05:17:25;;;;;;;11.13;10.07;;;;;;;32.95;56.32;100930.59;5056232;28;69675;-33
2021/04/27 05:20:03;;;;;;;10.57;9.70;;;;;;;32.96;56.57;100915.13;5041357;28;66709;-33
2021/04/27 05:22:40;;;;;;;10.05;9.32;;;;;;;32.96;56.67;100905.13;5033931;28;70794;-32
2021/04/27 05:25:11;;;;;;;10.13;9.35;;;;;;;32.98;56.35;100904.84;5052207;28;66805;-32
2021/04/27 05:27:46;;;;;;;9.80;9.10;;;;;;;33.00;56.58;100900.88;5067657;28;70369;-31
2021/04/27 05:30:16;;;;;;;10.77;9.73;;;;;;;33.01;56.41;100898.97;5039083;28;66290;-33
2021/04/27 05:32:46;;;;;;;9.73;9.02;;;;;;;33.05;57.05;100902.91;5038590;28;68281;-32
2021/04/27 05:35:24;;;;;;;10.52;9.50;;;;;;;33.05;56.73;100892.03;5036984;28;66619;-32
2021/04/27 05:37:54;;;;;;;10.27;9.38;;;;;;;33.07;56.67;100892.59;5038466;28;70334;-32
2021/04/27 05:40:24;;;;;;;9.63;8.90;;;;;;;33.07;56.84;100890.75;5033604;28;65937;-32
2021/04/27 05:42:57;;;;;;;10.07;9.38;;;;;;;33.09;56.31;100893.19;5031287;28;69147;-32
2021/04/27 05:45:27;;;;;;;10.20;9.40;;;;;;;33.09;56.83;100887.78;5045515;28;65992;-32
2021/04/27 05:47:58;;;;;;;10.35;9.50;;;;;;;33.13;56.74;100880.81;5040181;28;69339;-32
2021/04/27 05:50:28;;;;;;;9.80;9.20;;;;;;;33.13;56.37;100869.94;5045210;28;65522;-32
2021/04/27 05:52:58;;;;;;;9.95;9.05;;;;;;;33.15;56.40;100875.94;5049008;28;70091;-32
2021/04/27 05:55:29;;;;;;;9.50;8.90;;;;;;;33.18;56.71;100870.03;5054668;28;65960;-33
2021/04/27 05:58:00;;;;;;;9.27;8.60;;;;;;;33.21;56.71;100869.59;5021319;28;69603;-33
2021/04/27 06:00:29;;;;;;;9.82;9.02;;;;;;;33.25;56.40;100865.31;5039747;28;65644;-33
2021/04/27 06:02:59;;;;;;;10.02;9.13;;;;;;;33.27;56.44;100868.63;5050673;28;69334;-32
2021/04/27 06:05:30;;;;;;;10.02;9.18;;;;;;;33.30;56.43;100867.34;5041290;28;66023;-33
2021/04/27 06:08:00;;;;;;;9.68;8.98;;;;;;;33.34;56.38;100858.44;5038464;28;69335;-32
2021/04/27 06:10:32;;;;;;;10.27;8.93;;;;;;;33.31;56.24;100848.06;5051555;28;65546;-33
2021/04/27 06:13:02;;;;;;;9.48;8.77;;;;;;;33.42;56.04;100842.84;5045279;28;69607;-33
2021/04/27 06:15:32;;;;;;;10.50;9.48;;;;;;;33.42;55.97;100843.66;5042035;28;65526;-33
2021/04/27 06:18:02;;;;;;;9.20;8.63;;;;;;;33.46;56.00;100841.28;5051217;28;69819;-33
2021/04/27 06:20:32;;;;;;;8.10;7.70;;;;;;;33.46;55.97;100835.84;5040827;28;66478;-33
2021/04/27 06:23:03;;;;;;;9.18;8.60;;;;;;;33.50;56.10;100840.59;5043412;27;69393;-32
2021/04/27 06:25:33;;;;;;;9.18;8.50;;;;;;;33.53;55.90;100833.88;5049979;28;66322;-32
2021/04/27 06:28:03;;;;;;;10.68;9.10;;;;;;;33.58;55.96;100825.84;5042785;28;70119;-32
2021/04/27 06:30:33;;;;;;;9.23;8.52;;;;;;;33.58;55.91;100814.94;5043457;28;65426;-33
2021/04/27 06:33:03;;;;;;;9.82;9.05;;;;;;;33.63;55.84;100812.34;5040256;28;69806;-34
2021/04/27 06:35:32;;;;;;;9.30;8.60;;;;;;;33.68;55.87;100806.97;5044331;28;65879;-32
2021/04/27 06:38:02;;;;;;;8.85;8.18;;;;;;;33.68;55.54;100793.38;5036275;28;70939;-32
2021/04/27 06:40:32;;;;;;;8.23;7.72;;;;;;;33.73;55.39;100793.47;5041823;28;65629;-32
2021/04/27 06:43:02;;;;;;;8.90;8.20;;;;;;;33.77;55.61;100781.06;5042194;28;70674;-32
2021/04/27 06:45:32;;;;;;;9.10;8.40;;;;;;;33.80;55.53;100769.69;5047147;28;65241;-33
2021/04/27 06:48:05;;;;;;;8.23;7.60;;;;;;;33.84;55.50;100763.75;5044737;28;70311;-32
2021/04/27 06:50:37;;;;;;;7.97;7.47;;;;;;;33.91;55.29;100767.16;5042955;28;66496;-33
2021/04/27 06:53:08;;;;;;;8.48;8.02;;;;;;;33.95;55.25;100765.59;5042953;28;70291;-32
2021/04/27 06:55:38;;;;;;;8.33;7.73;;;;;;;33.97;55.10;100758.84;5047856;28;66210;-33
2021/04/27 06:58:11;;;;;;;8.27;7.57;;;;;;;34.01;55.06;100753.72;5038024;28;70032;-33
2021/04/27 07:00:41;;;;;;;9.07;7.40;;;;;;;34.06;55.07;100750.31;5038437;28;65401;-33
2021/04/27 07:03:11;;;;;;;7.70;7.30;;;;;;;34.15;54.66;100744.22;5036100;28;69606;-32
2021/04/27 07:05:43;;;;;;;8.02;7.30;;;;;;;34.18;54.74;100743.72;5040223;28;64989;-33
2021/04/27 07:08:13;;;;;;;7.60;7.20;;;;;;;34.23;54.73;100734.81;5041922;28;70636;-33
2021/04/27 07:10:43;;;;;;;8.35;7.38;;;;;;;34.20;54.60;100717.06;5048511;28;66508;-33
2021/04/27 07:13:12;;;;;;;8.20;7.45;;;;;;;34.31;54.71;100725.41;5042537;28;70809;-33
2021/04/27 07:15:41;;;;;;;8.40;7.63;;;;;;;34.36;54.55;100717.34;5044410;28;66782;-34
2021/04/27 07:18:16;;;;;;;8.02;7.63;;;;;;;34.40;54.35;100721.19;5037259;28;70286;-34
2021/04/27 07:20:46;;;;;;;7.78;7.20;;;;;;;34.45;54.27;100726.72;5040104;28;66408;-34
2021/04/27 07:23:16;;;;;;;7.32;6.90;;;;;;;34.49;54.19;100725.16;5040723;28;69468;-35
2021/04/27 07:25:45;;;;;;;7.25;6.88;;;;;;;34.51;53.98;100703.13;5041805;28;67110;-33
2021/04/27 07:28:16;;;;;;;7.30;6.75;;;;;;;34.53;54.34;100706.44;5045937;28;70480;-33
2021/04/27 07:30:45;;;;;;;7.38;6.97;;;;;;;34.57;54.27;100696.72;5047762;28;67139;-33
2021/04/27 07:33:15;;;;;;;7.80;7.40;;;;;;;34.57;54.39;100694.81;5019908;28;70033;-33
2021/04/27 07:35:45;;;;;;;7.40;7.00;;;;;;;34.60;54.17;100697.06;5047631;28;66464;-32
2021/04/27 07:38:21;;;;;;;7.43;6.78;;;;;;;34.65;53.94;100694.38;5046140;28;69997;-34
2021/04/27 07:40:51;;;;;;;6.78;6.38;;;;;;;34.68;54.15;100693.06;5049128;28;66311;-33
2021/04/27 07:43:22;;;;;;;7.18;6.78;;;;;;;34.71;54.02;100687.09;5042016;28;70406;-33
2021/04/27 07:45:52;;;;;;;6.95;6.47;;;;;;;34.75;53.68;100676.53;5046012;28;67075;-33
2021/04/27 07:48:23;;;;;;;6.25;5.95;;;;;;;34.79;53.43;100674.94;5045944;28;69555;-32
2021/04/27 07:50:53;;;;;;;7.18;6.70;;;;;;;34.83;53.78;100673.38;5033183;28;65963;-32
2021/04/27 07:53:22;;;;;;;7.03;6.53;;;;;;;34.87;53.22;100669.88;5038760;28;70915;-32
2021/04/27 07:55:53;;;;;;;7.20;6.82;;;;;;;34.89;53.45;100670.47;5051566;28;66388;-32
2021/04/27 07:58:23;;;;;;;6.82;6.18;;;;;;;34.95;53.29;100670.53;5042894;28;69642;-33
2021/04/27 08:00:54;;;;;;;6.80;6.40;;;;;;;34.95;53.47;100674.06;5041168;28;67664;-33
2021/04/27 08:03:25;;;;;;;7.63;6.87;;;;;;;34.97;53.59;100669.19;5038079;28;70756;-33
2021/04/27 08:05:56;;;;;;;8.52;6.88;;;;;;;35.03;53.24;100670.09;5040747;28;65913;-33
2021/04/27 08:08:26;;;;;;;7.03;6.53;;;;;;;35.05;53.31;100676.94;5042618;28;71869;-33
2021/04/27 08:10:57;;;;;;;6.75;6.40;;;;;;;35.07;53.05;100685.69;5046314;28;66512;-33
2021/04/27 08:13:27;;;;;;;6.68;6.28;;;;;;;35.10;53.11;100670.72;5047223;28;70830;-34
2021/04/27 08:15:56;;;;;;;7.20;6.80;;;;;;;35.14;53.16;100671.88;5049724;28;65811;-34
2021/04/27 08:18:27;;;;;;;7.00;6.38;;;;;;;35.14;52.96;100680.06;5043477;28;69783;-33
2021/04/27 08:20:57;;;;;;;6.20;5.80;;;;;;;35.19;52.82;100682.00;5041455;28;66277;-34
2021/04/27 08:23:35;;;;;;;9.40;5.88;;;;;;;35.18;53.10;100674.94;5043259;28;69958;-34
2021/04/27 08:26:07;;;;;;;7.13;6.60;;;;;;;35.12;52.97;100655.78;5041739;28;66610;-34
2021/04/27 08:28:37;;;;;;;6.38;5.95;;;;;;;35.21;53.07;100668.97;5044902;28;70517;-33
2021/04/27 08:31:08;;;;;;;6.32;6.00;;;;;;;35.13;52.52;100652.00;5060766;28;66483;-33
2021/04/27 08:33:38;;;;;;;6.78;6.45;;;;;;;35.25;52.60;100667.38;5044151;28;70218;-34
2021/04/27 08:36:10;;;;;;;6.43;6.03;;;;;;;35.27;52.88;100676.09;5050649;28;66307;-34
2021/04/27 08:38:41;;;;;;;6.03;5.63;;;;;;;35.29;52.71;100676.69;5046260;28;69101;-35
2021/04/27 08:41:10;;;;;;;6.35;5.93;;;;;;;35.29;52.67;100671.22;5045364;28;66633;-36
2021/04/27 08:43:41;;;;;;;6.30;5.95;;;;;;;35.31;52.91;100669.09;5028720;28;70582;-34
2021/04/27 08:46:10;;;;;;;7.82;6.03;;;;;;;35.34;52.62;100674.03;5047313;28;66339;-34
2021/04/27 08:48:42;;;;;;;6.35;6.05;;;;;;;35.31;52.65;100669.09;5056997;28;70459;-34
2021/04/27 08:51:13;;;;;;;6.40;5.80;;;;;;;35.27;52.33;100673.38;5039987;28;68347;-33
2021/04/27 08:53:42;;;;;;;6.70;6.10;;;;;;;35.40;52.67;100689.34;5031832;28;70387;-33
2021/04/27 08:56:14;;;;;;;6.07;5.53;;;;;;;35.47;52.11;100691.91;5045908;28;66676;-32
2021/04/27 08:58:45;;;;;;;6.43;5.13;;;;;;;35.48;52.22;100690.81;5042575;28;70869;-33
2021/04/27 09:01:15;;;;;;;8.57;5.75;;;;;;;35.47;52.15;100684.53;5046486;28;65653;-32
2021/04/27 09:03:50;;;;;;;5.78;5.47;;;;;;;35.50;52.07;100677.75;5041863;28;70705;-32
2021/04/27 09:06:22;;;;;;;5.70;5.40;;;;;;;35.53;51.86;100677.22;5042556;28;66523;-33
2021/04/27 09:08:56;;;;;;;6.57;5.50;;;;;;;35.52;51.89;100681.03;5055472;28;69931;-33
2021/04/27 09:11:42;;;;;;;5.88;5.38;;;;;;;35.29;51.80;100652.16;5045744;28;66514;-32
2021/04/27 09:14:15;;;;;;;6.78;5.43;;;;;;;35.53;51.99;100683.50;5044023;28;69406;-33
2021/04/27 09:16:56;;;;;;;5.47;5.18;;;;;;;35.50;51.69;100675.84;5043342;28;66091;-33
2021/04/27 09:19:53;;;;;;;6.88;5.50;;;;;;;35.48;51.71;100679.91;5047004;28;69477;-33
2021/04/27 09:22:30;;;;;;;5.88;5.47;;;;;;;35.55;51.73;100681.34;5045862;28;66777;-33
2021/04/27 09:25:08;;;;;;;6.60;5.35;;;;;;;35.53;51.33;100685.41;5044322;28;69704;-33
2021/04/27 09:27:48;;;;;;;5.95;5.63;;;;;;;35.44;51.89;100673.28;5028116;28;68212;-33
2021/04/27 09:30:24;;;;;;;5.65;5.25;;;;;;;35.52;51.65;100690.06;5046108;28;70447;-33
2021/04/27 09:33:10;;;;;;;5.80;5.40;;;;;;;35.53;51.59;100688.97;5042186;28;66445;-32
2021/04/27 09:35:46;;;;;;;7.78;7.07;;;;;;;35.54;51.80;100697.97;5044710;28;70320;-34
2021/04/27 09:38:18;;;;;;;8.00;7.50;;;;;;;35.52;51.85;100690.06;5042164;28;66384;-32
2021/04/27 09:41:17;;;;;;;7.80;7.20;;;;;;;35.43;51.62;100694.28;5041639;28;69354;-33
2021/04/27 09:43:49;;;;;;;6.95;6.55;;;;;;;35.49;51.63;100696.00;5042633;28;66752;-34
2021/04/27 09:46:22;;;;;;;6.93;6.43;;;;;;;35.43;51.97;100694.28;5028898;28;70732;-33
2021/04/27 09:48:54;;;;;;;6.25;5.85;;;;;;;35.38;51.63;100702.41;5033975;28;65615;-34
2021/04/27 09:51:34;;;;;;;7.32;6.70;;;;;;;35.38;51.46;100707.88;5038350;28;69699;-32
2021/04/27 09:54:11;;;;;;;6.47;6.07;;;;;;;35.45;51.10;100732.25;5041760;28;65754;-33
2021/04/27 09:56:51;;;;;;;7.32;6.63;;;;;;;35.36;51.35;100737.31;5044857;28;70590;-33
2021/04/27 09:59:24;;;;;;;6.65;6.22;;;;;;;35.46;51.26;100751.06;5035644;28;66863;-33
2021/04/27 10:01:56;;;;;;;6.50;6.00;;;;;;;35.45;51.88;100757.59;5044677;28;70380;-34
2021/04/27 10:04:27;;;;;;;6.40;6.00;;;;;;;35.41;51.38;100761.09;5034456;28;65424;-33
2021/04/27 10:07:02;;;;;;;6.50;6.07;;;;;;;35.43;51.28;100761.66;5038720;28;70307;-33
2021/04/27 10:09:32;;;;;;;6.43;6.03;;;;;;;35.37;51.53;100752.59;5002042;28;65818;-34
2021/04/27 10:12:05;;;;;;;7.88;6.18;;;;;;;35.36;51.86;100753.69;5041324;28;69503;-33
2021/04/27 10:14:36;;;;;;;6.38;5.97;;;;;;;35.33;51.53;100759.66;5036961;28;65762;-34
2021/04/27 10:17:06;;;;;;;6.35;6.05;;;;;;;35.32;51.84;100763.44;5037936;28;69555;-34
2021/04/27 10:19:36;;;;;;;6.30;5.90;;;;;;;35.27;51.68;100768.81;5042407;28;67407;-34
2021/04/27 10:22:05;;;;;;;5.60;5.20;;;;;;;35.16;51.92;100769.78;5042354;28;69665;-33
2021/04/27 10:24:34;;;;;;;19.27;7.68;;;;;;;34.83;52.83;100776.94;5038045;28;66552;-34
2021/04/27 10:27:05;;;;;;;17.20;8.85;;;;;;;34.72;52.78;100778.69;5039548;28;70278;-35
2021/04/27 10:29:35;;;;;;;15.00;8.75;;;;;;;34.37;53.04;100765.28;5039949;28;65502;-35
2021/04/27 10:32:24;;;;;;;19.35;9.23;;;;;;;34.12;53.55;100755.59;5042491;28;70799;-36
2021/04/27 10:34:57;;;;;;;14.02;9.05;;;;;;;34.21;53.50;100792.25;5038401;28;66665;-35
2021/04/27 10:37:32;;;;;;;17.25;8.77;;;;;;;34.08;53.72;100798.00;5047354;28;70637;-34
2021/04/27 10:40:01;;;;;;;20.45;9.57;;;;;;;34.06;53.98;100800.13;5041917;28;65269;-34
2021/04/27 10:42:33;;;;;;;18.38;9.88;;;;;;;33.99;54.00;100805.69;5038546;28;69609;-35
2021/04/27 10:45:08;;;;;;;16.90;9.38;;;;;;;33.91;54.07;100805.28;5038536;28;64951;-35
2021/04/27 10:47:46;;;;;;;18.65;11.00;;;;;;;33.80;54.11;100788.75;5040602;28;70543;-35
2021/04/27 10:50:31;;;;;;;17.08;11.05;;;;;;;33.73;54.33;100790.75;5039360;28;66662;-36
2021/04/27 10:53:37;;;;;;;13.40;10.10;;;;;;;33.68;53.67;100777.06;5039169;28;70201;-35
2021/04/27 10:56:07;;;;;;;15.50;11.43;;;;;;;33.89;53.17;100788.34;5042212;28;65355;-34
2021/04/27 10:58:46;;;;;;;28.85;11.05;;;;;;;33.86;52.74;100783.41;5042940;28;70930;-34
2021/04/27 11:01:21;;;;;;;16.15;11.20;;;;;;;33.75;53.84;100766.88;5039246;28;65680;-34
2021/04/27 11:03:53;;;;;;;25.02;10.45;;;;;;;33.88;54.23;100786.69;5035038;28;69860;-34
2021/04/27 11:06:23;;;;;;;21.27;9.70;;;;;;;33.90;54.64;100784.56;5048259;28;66654;-34
2021/04/27 11:08:56;;;;;;;19.33;10.43;;;;;;;33.91;54.74;100783.50;5041753;28;69403;-34
2021/04/27 11:11:31;;;;;;;15.57;9.65;;;;;;;33.94;55.28;100780.28;5039880;28;65748;-35
2021/04/27 11:14:20;;;;;;;16.27;10.32;;;;;;;33.85;55.37;100773.56;5036255;28;71102;-34
2021/04/27 11:16:56;;;;;;;16.40;9.75;;;;;;;33.91;55.52;100781.59;5036826;28;66708;-34
2021/04/27 11:19:32;;;;;;;10.45;9.10;;;;;;;33.92;55.39;100776.97;5046983;28;70179;-34
2021/04/27 11:22:20;;;;;;;18.15;9.80;;;;;;;33.73;55.96;100749.94;5046062;28;66647;-34
2021/04/27 11:24:54;;;;;;;10.52;9.52;;;;;;;33.85;55.60;100765.41;5048826;28;68946;-34
2021/04/27 11:27:34;;;;;;;10.18;9.23;;;;;;;33.82;55.87;100755.81;5043305;28;66504;-34
2021/04/27 11:30:08;;;;;;;12.20;9.77;;;;;;;33.84;55.92;100759.13;5039656;28;69652;-33
2021/04/27 11:32:43;;;;;;;10.95;9.85;;;;;;;33.73;55.80;100755.41;5043190;28;66418;-34
2021/04/27 11:35:23;;;;;;;20.77;10.57;;;;;;;33.77;55.96;100775.63;5043065;28;70381;-33
2021/04/27 11:37:56;;;;;;;11.55;10.48;;;;;;;33.84;55.93;100789.06;5043913;28;65546;-34
2021/04/27 11:40:25;;;;;;;10.75;9.80;;;;;;;33.83;56.15;100801.03;5040125;28;69726;-35
2021/04/27 11:43:04;;;;;;;22.38;12.70;;;;;;;33.79;56.03;100811.59;5040642;28;67779;-34
2021/04/27 11:45:36;;;;;;;19.70;15.77;;;;;;;33.74;54.60;100797.88;5021912;28;70507;-39
2021/04/27 11:48:10;;;;;;;17.63;16.00;;;;;;;33.68;54.72;100804.25;5035207;28;65614;-35
2021/04/27 11:50:41;;;;;;;22.95;17.60;;;;;;;33.55;54.86;100807.28;5032936;28;70606;-35
2021/04/27 11:53:26;;;;;;;25.50;17.35;;;;;;;33.47;55.33;100816.59;5037178;28;67133;-36